N07 weather

Lincoln Park Airport
Lincoln Park, New Jersey, United States

Public forecast

Using degrees Fahrenheit for public forecast. Weather courtesy of forecast.io.

Closest aviation weather report (METAR) to Lincoln Park Airport

Closest report is Essex County Airport, 4.6 nm (8.5 km) SSE. Retrieved 2020/04/10 02:53 UTC (59 minutes ago):

KCDW 100253Z AUTO VRB04KT 10SM CLR 08/M04 A2938 RMK AO2 SLP954 T00781039 50007

Closest aviation forecast (TAF) to Lincoln Park Airport

Closest forecast is Teterboro Airport, 12.9 nm (23.9 km) ESE. Retrieved 2020-04-10 00:27 UTC (3 hours ago):

TAF KTEB 092324Z 1000/1106 31014G24KT P6SM SCT060 FM100300 28013G21KT P6SM BKN060 FM101100 28023G31KT P6SM SCT060 FM101400 28025G37KT P6SM BKN070 FM110100 30016G26KT P6SM SCT070